createdAt,value
2018-03-29T00:00:39.753Z,8.71
2018-03-29T00:01:39.749Z,8.69
2018-03-29T00:02:39.747Z,8.61
2018-03-29T00:03:39.742Z,8.50
2018-03-29T00:04:39.739Z,8.46
2018-03-29T00:05:39.734Z,8.41
2018-03-29T00:06:39.732Z,8.36
2018-03-29T00:07:39.728Z,8.38
2018-03-29T00:08:39.723Z,8.38
2018-03-29T00:09:39.719Z,8.41
2018-03-29T00:10:39.720Z,8.39
2018-03-29T00:11:39.713Z,8.44
2018-03-29T00:12:39.712Z,8.38
2018-03-29T00:13:39.706Z,8.50
2018-03-29T00:14:39.702Z,8.36
2018-03-29T00:15:39.709Z,8.42
2018-03-29T00:16:39.695Z,8.44
2018-03-29T00:17:39.697Z,8.44
2018-03-29T00:18:39.687Z,8.36
2018-03-29T00:19:39.683Z,8.39
2018-03-29T00:20:39.683Z,8.38
2018-03-29T00:21:39.677Z,8.39
2018-03-29T00:22:39.673Z,8.41
2018-03-29T00:23:39.669Z,8.45
2018-03-29T00:24:39.664Z,8.44
2018-03-29T00:25:39.661Z,8.39
2018-03-29T00:26:39.658Z,8.38
2018-03-29T00:27:39.656Z,8.32
2018-03-29T00:28:39.649Z,8.28
2018-03-29T00:29:39.646Z,8.39
2018-03-29T00:30:39.642Z,8.24
2018-03-29T00:31:39.638Z,8.26
2018-03-29T00:32:39.635Z,8.28
2018-03-29T00:33:39.631Z,8.34
2018-03-29T00:34:39.627Z,8.31
2018-03-29T00:35:39.624Z,8.28
2018-03-29T00:36:39.619Z,8.28
2018-03-29T00:37:39.616Z,8.27
2018-03-29T00:38:39.612Z,8.32
2018-03-29T00:39:39.607Z,8.31
2018-03-29T00:40:39.604Z,8.23
2018-03-29T00:41:39.601Z,8.17
2018-03-29T00:42:39.599Z,8.31
2018-03-29T00:43:39.592Z,8.28
2018-03-29T00:44:39.589Z,8.31
2018-03-29T00:45:39.585Z,8.27
2018-03-29T00:46:39.581Z,8.34
2018-03-29T00:47:39.578Z,8.23
2018-03-29T00:48:39.573Z,8.24
2018-03-29T00:49:39.569Z,8.24
2018-03-29T00:50:39.566Z,8.23
2018-03-29T00:51:39.562Z,8.21
2018-03-29T00:52:39.558Z,8.17
2018-03-29T00:53:39.555Z,8.20
2018-03-29T00:54:39.549Z,8.14
2018-03-29T00:55:39.545Z,8.16
2018-03-29T00:56:39.542Z,8.16
2018-03-29T00:57:39.538Z,8.13
2018-03-29T00:58:39.533Z,8.06
2018-03-29T00:59:39.530Z,8.06
2018-03-29T01:00:39.525Z,8.13
2018-03-29T01:01:39.522Z,8.03
2018-03-29T01:02:39.518Z,8.09
2018-03-29T01:03:39.516Z,7.91
2018-03-29T01:04:39.511Z,7.90
2018-03-29T01:05:39.506Z,7.85
2018-03-29T01:06:39.503Z,7.96
2018-03-29T01:07:39.498Z,7.90
2018-03-29T01:08:39.498Z,7.88
2018-03-29T01:09:39.492Z,7.84
2018-03-29T01:10:39.486Z,7.85
2018-03-29T01:11:39.482Z,7.80
2018-03-29T01:12:39.478Z,7.80
2018-03-29T01:13:39.476Z,7.81
2018-03-29T01:14:39.470Z,7.83
2018-03-29T01:15:39.465Z,7.80
2018-03-29T01:16:39.461Z,7.77
2018-03-29T01:17:39.465Z,7.66
2018-03-29T01:18:39.454Z,7.69
2018-03-29T01:19:39.450Z,7.80
2018-03-29T01:20:39.446Z,7.70
2018-03-29T01:21:39.442Z,7.81
2018-03-29T01:22:39.438Z,7.67
2018-03-29T01:23:39.435Z,7.64
2018-03-29T01:24:39.430Z,7.62
2018-03-29T01:25:39.425Z,7.66
2018-03-29T01:26:39.422Z,7.56
2018-03-29T01:27:39.418Z,7.58
2018-03-29T01:28:39.417Z,7.53
2018-03-29T01:29:39.410Z,7.59
2018-03-29T01:30:39.655Z,7.58
2018-03-29T01:31:39.411Z,7.64
2018-03-29T01:32:39.396Z,7.62
2018-03-29T01:33:39.393Z,7.56
2018-03-29T01:34:39.388Z,7.66
2018-03-29T01:35:39.385Z,7.61
2018-03-29T01:36:39.385Z,7.56
2018-03-29T01:37:39.376Z,7.47
2018-03-29T01:38:39.372Z,7.37
2018-03-29T01:39:39.368Z,7.28
2018-03-29T01:40:39.367Z,7.15
2018-03-29T01:41:39.360Z,7.10
2018-03-29T01:42:39.355Z,6.97
2018-03-29T01:43:39.353Z,6.95
2018-03-29T01:44:39.348Z,6.77
2018-03-29T01:45:39.341Z,6.70
2018-03-29T01:46:39.338Z,6.68
2018-03-29T01:47:39.335Z,6.70
2018-03-29T01:48:39.329Z,6.60
2018-03-29T01:49:39.326Z,6.46
2018-03-29T01:50:39.320Z,6.56
2018-03-29T01:51:39.317Z,6.50
2018-03-29T01:52:39.312Z,6.49
2018-03-29T01:53:39.314Z,6.39
2018-03-29T01:54:39.304Z,6.52
2018-03-29T01:55:39.300Z,6.49
2018-03-29T01:56:39.295Z,6.39
2018-03-29T01:57:39.289Z,6.49
2018-03-29T01:58:39.289Z,6.49
2018-03-29T01:59:39.281Z,6.50
2018-03-29T02:00:39.275Z,6.44
2018-03-29T02:01:39.271Z,6.52
2018-03-29T02:02:39.268Z,6.35
2018-03-29T02:03:39.263Z,6.38
2018-03-29T02:04:39.258Z,6.39
2018-03-29T02:05:39.253Z,6.36
2018-03-29T02:06:39.248Z,6.35
2018-03-29T02:07:39.243Z,6.34
2018-03-29T02:08:39.237Z,6.35
2018-03-29T02:09:39.233Z,6.41
2018-03-29T02:10:39.229Z,6.46
2018-03-29T02:11:39.225Z,6.50
2018-03-29T02:12:39.219Z,6.35
2018-03-29T02:13:39.215Z,6.38
2018-03-29T02:14:39.223Z,6.36
2018-03-29T02:15:39.206Z,6.53
2018-03-29T02:16:39.201Z,6.46
2018-03-29T02:17:39.196Z,6.36
2018-03-29T02:18:39.192Z,6.35
2018-03-29T02:19:39.186Z,6.39
2018-03-29T02:20:39.182Z,6.38
2018-03-29T02:21:39.177Z,6.32
2018-03-29T02:22:39.173Z,6.34
2018-03-29T02:23:39.167Z,6.32
2018-03-29T02:24:39.162Z,6.35
2018-03-29T02:25:39.158Z,6.29
2018-03-29T02:26:39.154Z,6.35
2018-03-29T02:27:39.149Z,6.39
2018-03-29T02:28:39.144Z,6.38
2018-03-29T02:29:39.139Z,6.44
2018-03-29T02:30:39.138Z,6.43
2018-03-29T02:31:39.131Z,6.39
2018-03-29T02:32:39.124Z,6.39
2018-03-29T02:33:39.125Z,6.47
2018-03-29T02:34:39.121Z,6.41
2018-03-29T02:35:39.130Z,6.39
2018-03-29T02:36:39.108Z,6.39
2018-03-29T02:37:39.103Z,6.26
2018-03-29T02:38:39.105Z,6.19
2018-03-29T02:39:39.097Z,6.32
2018-03-29T02:40:39.089Z,6.29
2018-03-29T02:41:39.083Z,6.22
2018-03-29T02:42:39.079Z,6.26
2018-03-29T02:43:39.075Z,6.25
2018-03-29T02:44:39.070Z,6.20
2018-03-29T02:45:39.065Z,6.19
2018-03-29T02:46:39.061Z,6.20
2018-03-29T02:47:39.057Z,6.16
2018-03-29T02:48:39.052Z,6.12
2018-03-29T02:49:39.046Z,6.16
2018-03-29T02:50:39.042Z,6.07
2018-03-29T02:51:39.037Z,5.98
2018-03-29T02:52:39.032Z,6.12
2018-03-29T02:53:39.027Z,6.07
2018-03-29T02:54:39.021Z,6.12
2018-03-29T02:55:39.017Z,6.13
2018-03-29T02:56:39.015Z,6.06
2018-03-29T02:57:39.008Z,6.09
2018-03-29T02:58:39.004Z,6.06
2018-03-29T02:59:38.998Z,6.07
2018-03-29T03:00:38.993Z,6.13
2018-03-29T03:01:38.991Z,6.19
2018-03-29T03:02:38.985Z,6.16
2018-03-29T03:03:38.983Z,6.12
2018-03-29T03:04:38.975Z,6.01
2018-03-29T03:05:38.970Z,6.17
2018-03-29T03:06:38.964Z,6.17
2018-03-29T03:07:38.960Z,6.26
2018-03-29T03:08:38.959Z,6.22
2018-03-29T03:09:38.951Z,6.31
2018-03-29T03:10:38.953Z,6.20
2018-03-29T03:11:38.942Z,6.16
2018-03-29T03:12:38.937Z,5.99
2018-03-29T03:13:38.933Z,6.12
2018-03-29T03:14:38.940Z,6.12
2018-03-29T03:15:38.921Z,6.09
2018-03-29T03:16:38.917Z,5.95
2018-03-29T03:17:38.912Z,6.07
2018-03-29T03:18:38.907Z,5.99
2018-03-29T03:19:38.903Z,5.95
2018-03-29T03:20:38.897Z,5.95
2018-03-29T03:21:38.892Z,5.94
2018-03-29T03:22:38.888Z,5.88
2018-03-29T03:23:38.884Z,5.84
2018-03-29T03:24:38.878Z,5.84
2018-03-29T03:25:38.873Z,5.79
2018-03-29T03:26:38.868Z,5.81
2018-03-29T03:27:38.863Z,5.79
2018-03-29T03:28:39.162Z,5.83
2018-03-29T03:29:38.852Z,5.76
2018-03-29T03:30:38.848Z,5.87
2018-03-29T03:31:38.842Z,5.76
2018-03-29T03:32:38.836Z,5.81
2018-03-29T03:33:38.831Z,5.77
2018-03-29T03:34:38.825Z,5.79
2018-03-29T03:35:38.823Z,5.77
2018-03-29T03:36:38.815Z,5.77
2018-03-29T03:37:38.814Z,5.76
2018-03-29T03:38:38.806Z,5.77
2018-03-29T03:39:38.804Z,5.76
2018-03-29T03:40:38.795Z,5.76
2018-03-29T03:41:38.792Z,5.77
2018-03-29T03:42:38.786Z,5.72
2018-03-29T03:43:38.780Z,5.80
2018-03-29T03:44:38.775Z,5.83
2018-03-29T03:45:38.770Z,5.83
2018-03-29T03:46:38.768Z,5.88
2018-03-29T03:47:38.758Z,5.83
2018-03-29T03:48:38.753Z,5.84
2018-03-29T03:49:38.750Z,5.90
2018-03-29T03:50:38.743Z,5.91
2018-03-29T03:51:38.739Z,6.06
2018-03-29T03:52:38.733Z,5.92
2018-03-29T03:53:38.728Z,5.95
2018-03-29T03:54:38.723Z,5.95
2018-03-29T03:55:38.718Z,5.97
2018-03-29T03:56:38.712Z,5.95
2018-03-29T03:57:38.708Z,5.90
2018-03-29T03:58:38.703Z,5.94
2018-03-29T03:59:38.698Z,5.99
2018-03-29T04:00:38.692Z,5.90
2018-03-29T04:01:38.686Z,6.07
2018-03-29T04:02:38.682Z,6.01
2018-03-29T04:03:38.681Z,6.07
2018-03-29T04:04:38.671Z,6.05
2018-03-29T04:05:38.665Z,6.06
2018-03-29T04:06:38.660Z,5.97
2018-03-29T04:07:38.657Z,6.05
2018-03-29T04:08:38.650Z,6.02
2018-03-29T04:09:38.645Z,6.06
2018-03-29T04:10:38.641Z,6.07
2018-03-29T04:11:38.636Z,6.05
2018-03-29T04:12:38.630Z,6.09
2018-03-29T04:13:38.626Z,6.13
2018-03-29T04:14:38.621Z,6.07
2018-03-29T04:15:38.617Z,6.06
2018-03-29T04:16:38.610Z,6.02
2018-03-29T04:17:38.606Z,6.01
2018-03-29T04:18:38.601Z,5.94
2018-03-29T04:19:38.596Z,6.02
2018-03-29T04:20:38.590Z,5.94
2018-03-29T04:21:38.584Z,5.95
2018-03-29T04:22:38.580Z,5.90
2018-03-29T04:23:38.576Z,5.90
2018-03-29T04:24:38.568Z,5.94
2018-03-29T04:25:38.564Z,5.92
2018-03-29T04:26:38.559Z,5.83
2018-03-29T04:27:38.555Z,5.83
2018-03-29T04:28:38.548Z,5.81
2018-03-29T04:29:38.550Z,5.84
2018-03-29T04:30:38.539Z,5.87
2018-03-29T04:31:38.535Z,5.83
2018-03-29T04:32:38.528Z,5.79
2018-03-29T04:33:38.523Z,5.90
2018-03-29T04:34:38.518Z,5.94
2018-03-29T04:35:38.512Z,5.94
2018-03-29T04:36:38.507Z,5.90
2018-03-29T04:37:38.502Z,5.83
2018-03-29T04:38:38.496Z,5.84
2018-03-29T04:39:38.491Z,5.79
2018-03-29T04:40:38.486Z,5.73
2018-03-29T04:41:38.481Z,5.72
2018-03-29T04:42:38.476Z,5.69
2018-03-29T04:43:38.471Z,5.72
2018-03-29T04:44:38.465Z,5.74
2018-03-29T04:45:38.459Z,5.73
2018-03-29T04:46:38.455Z,5.74
2018-03-29T04:47:38.450Z,5.64
2018-03-29T04:48:38.444Z,5.64
2018-03-29T04:49:38.439Z,5.61
2018-03-29T04:50:38.434Z,5.64
2018-03-29T04:51:38.427Z,5.55
2018-03-29T04:52:38.424Z,5.62
2018-03-29T04:53:38.416Z,5.56
2018-03-29T04:54:38.411Z,5.62
2018-03-29T04:55:38.408Z,5.61
2018-03-29T04:56:38.400Z,5.58
2018-03-29T04:57:38.395Z,5.55
2018-03-29T04:58:38.389Z,5.61
2018-03-29T04:59:38.384Z,5.61
2018-03-29T05:00:38.379Z,5.59
2018-03-29T05:01:38.374Z,5.64
2018-03-29T05:02:38.369Z,5.65
2018-03-29T05:03:38.364Z,5.56
2018-03-29T05:04:38.357Z,5.58
2018-03-29T05:05:38.356Z,5.54
2018-03-29T05:06:38.346Z,5.64
2018-03-29T05:07:38.391Z,5.67
2018-03-29T05:08:38.336Z,5.61
2018-03-29T05:09:38.331Z,5.51
2018-03-29T05:10:38.575Z,5.54
2018-03-29T05:11:38.319Z,5.54
2018-03-29T05:12:38.314Z,5.55
2018-03-29T05:13:38.311Z,5.49
2018-03-29T05:14:38.304Z,5.55
2018-03-29T05:15:38.298Z,5.55
2018-03-29T05:16:38.293Z,5.54
2018-03-29T05:17:38.287Z,5.55
2018-03-29T05:18:38.284Z,5.43
2018-03-29T05:19:38.277Z,5.44
2018-03-29T05:20:38.269Z,5.54
2018-03-29T05:21:38.268Z,5.51
2018-03-29T05:22:38.260Z,5.51
2018-03-29T05:23:38.254Z,5.59
2018-03-29T05:24:38.249Z,5.56
2018-03-29T05:25:38.243Z,5.58
2018-03-29T05:26:38.238Z,5.58
2018-03-29T05:27:38.232Z,5.51
2018-03-29T05:28:38.225Z,5.58
2018-03-29T05:29:38.221Z,5.55
2018-03-29T05:30:38.217Z,5.55
2018-03-29T05:31:38.214Z,5.67
2018-03-29T05:32:38.204Z,5.52
2018-03-29T05:33:38.200Z,5.55
2018-03-29T05:34:38.194Z,5.56
2018-03-29T05:35:38.190Z,5.52
2018-03-29T05:36:38.184Z,5.61
2018-03-29T05:37:38.178Z,5.58
2018-03-29T05:38:38.212Z,5.55
2018-03-29T05:39:38.167Z,5.55
2018-03-29T05:40:38.162Z,5.62
2018-03-29T05:41:38.157Z,5.58
2018-03-29T05:42:38.152Z,5.70
2018-03-29T05:43:38.171Z,5.56
2018-03-29T05:44:38.140Z,5.61
2018-03-29T05:45:38.136Z,5.61
2018-03-29T05:46:38.129Z,5.62
2018-03-29T05:47:38.131Z,5.67
2018-03-29T05:48:38.120Z,5.69
2018-03-29T05:49:38.114Z,5.77
2018-03-29T05:50:38.117Z,5.84
2018-03-29T05:51:38.104Z,5.87
2018-03-29T05:52:38.099Z,5.81
2018-03-29T05:53:38.094Z,5.87
2018-03-29T05:54:38.356Z,5.95
2018-03-29T05:55:38.083Z,5.95
2018-03-29T05:56:38.078Z,5.92
2018-03-29T05:57:38.080Z,5.97
2018-03-29T05:58:38.067Z,5.90
2018-03-29T05:59:38.065Z,6.06
2018-03-29T06:00:38.056Z,6.09
2018-03-29T06:01:38.058Z,6.01
2018-03-29T06:02:38.049Z,6.19
2018-03-29T06:03:38.043Z,6.12
2018-03-29T06:04:38.037Z,6.10
2018-03-29T06:05:38.366Z,6.20
2018-03-29T06:06:38.028Z,6.34
2018-03-29T06:07:38.023Z,6.31
2018-03-29T06:08:38.022Z,6.29
2018-03-29T06:09:38.014Z,6.31
2018-03-29T06:10:38.008Z,6.36
2018-03-29T06:11:38.004Z,6.39
2018-03-29T06:12:37.998Z,6.44
2018-03-29T06:13:37.999Z,6.46
2018-03-29T06:14:37.990Z,6.44
2018-03-29T06:15:37.986Z,6.44
2018-03-29T06:16:37.980Z,6.43
2018-03-29T06:17:37.976Z,6.59
2018-03-29T06:18:38.006Z,6.54
2018-03-29T06:19:38.268Z,6.56
2018-03-29T06:20:37.963Z,6.65
2018-03-29T06:21:37.957Z,6.65
2018-03-29T06:22:37.955Z,6.65
2018-03-29T06:23:37.950Z,6.62
2018-03-29T06:24:37.944Z,6.72
2018-03-29T06:25:37.948Z,6.70
2018-03-29T06:26:37.940Z,6.78
2018-03-29T06:27:37.933Z,6.87
2018-03-29T06:28:37.929Z,6.83
2018-03-29T06:29:37.925Z,6.85
2018-03-29T06:30:37.921Z,6.85
2018-03-29T06:31:37.916Z,6.87
2018-03-29T06:32:37.912Z,6.78
2018-03-29T06:33:37.915Z,6.77
2018-03-29T06:34:37.906Z,6.92
2018-03-29T06:35:37.901Z,6.86
2018-03-29T06:36:37.897Z,6.82
2018-03-29T06:37:37.893Z,6.86
2018-03-29T06:38:37.896Z,6.97
2018-03-29T06:39:37.885Z,7.07
2018-03-29T06:40:37.884Z,7.05
2018-03-29T06:41:37.877Z,7.14
2018-03-29T06:42:37.904Z,7.23
2018-03-29T06:43:37.870Z,7.29
2018-03-29T06:44:37.902Z,7.28
2018-03-29T06:45:37.860Z,7.33
2018-03-29T06:46:37.859Z,7.37
2018-03-29T06:47:37.853Z,7.41
2018-03-29T06:48:37.850Z,7.37
2018-03-29T06:49:37.846Z,7.33
2018-03-29T06:50:37.844Z,7.37
2018-03-29T06:51:37.840Z,7.22
2018-03-29T06:52:37.836Z,7.23
2018-03-29T06:53:37.832Z,7.26
2018-03-29T06:54:37.829Z,7.15
2018-03-29T06:55:37.826Z,7.01
2018-03-29T06:56:37.825Z,7.03
2018-03-29T06:57:37.823Z,6.97
2018-03-29T06:58:37.815Z,6.87
2018-03-29T06:59:38.094Z,6.83
2018-03-29T07:00:37.808Z,6.89
2018-03-29T07:01:37.803Z,7.00
2018-03-29T07:02:37.800Z,7.10
2018-03-29T07:03:38.068Z,7.18
2018-03-29T07:04:37.856Z,7.22
2018-03-29T07:05:37.851Z,7.21
2018-03-29T07:06:37.882Z,7.33
2018-03-29T07:07:37.878Z,7.33
2018-03-29T07:08:37.791Z,7.44
2018-03-29T07:09:37.963Z,7.44
2018-03-29T07:10:37.862Z,7.40
2018-03-29T07:11:37.817Z,7.36
2018-03-29T07:12:37.829Z,7.29
2018-03-29T07:13:37.762Z,7.41
2018-03-29T07:14:37.761Z,7.28
2018-03-29T07:15:37.756Z,7.40
2018-03-29T07:16:37.751Z,7.33
2018-03-29T07:17:37.747Z,7.37
2018-03-29T07:18:37.744Z,7.36
2018-03-29T07:19:37.745Z,7.40
2018-03-29T07:20:37.743Z,7.31
2018-03-29T07:21:37.733Z,7.28
2018-03-29T07:22:37.730Z,7.15
2018-03-29T07:23:37.727Z,7.07
2018-03-29T07:24:37.722Z,7.07
2018-03-29T07:25:37.718Z,7.21
2018-03-29T07:26:37.714Z,7.18
2018-03-29T07:27:37.711Z,7.22
2018-03-29T07:28:37.708Z,7.21
2018-03-29T07:29:37.705Z,7.28
2018-03-29T07:30:37.724Z,7.23
2018-03-29T07:31:37.701Z,7.33
2018-03-29T07:32:37.693Z,7.36
2018-03-29T07:33:37.691Z,7.41
2018-03-29T07:34:37.712Z,7.40
2018-03-29T07:35:37.771Z,7.44
2018-03-29T07:36:37.686Z,7.33
2018-03-29T07:37:37.675Z,7.28
2018-03-29T07:38:37.673Z,7.36
2018-03-29T07:39:37.671Z,7.36
2018-03-29T07:40:37.666Z,7.36
2018-03-29T07:41:37.664Z,7.33
2018-03-29T07:42:37.660Z,7.40
2018-03-29T07:43:37.946Z,7.43
2018-03-29T07:44:37.653Z,7.46
2018-03-29T07:45:37.648Z,7.44
2018-03-29T07:46:37.646Z,7.40
2018-03-29T07:47:37.645Z,7.32
2018-03-29T07:48:37.899Z,7.23
2018-03-29T07:49:38.406Z,7.25
2018-03-29T07:50:37.881Z,7.22
2018-03-29T07:51:37.629Z,7.36
2018-03-29T07:52:37.859Z,7.37
2018-03-29T07:53:37.621Z,7.46
2018-03-29T07:54:37.617Z,7.53
2018-03-29T07:55:37.615Z,7.70
2018-03-29T07:56:37.612Z,7.67
2018-03-29T07:57:37.609Z,7.69
2018-03-29T07:58:37.606Z,7.74
2018-03-29T07:59:37.602Z,7.69
2018-03-29T08:00:37.598Z,7.72
2018-03-29T08:01:37.749Z,7.64
2018-03-29T08:02:37.593Z,7.67
2018-03-29T08:03:37.589Z,7.67
2018-03-29T08:04:37.584Z,7.66
2018-03-29T08:05:37.582Z,7.72
2018-03-29T08:06:37.580Z,7.78
2018-03-29T08:07:37.576Z,7.80
2018-03-29T08:08:37.571Z,7.80
2018-03-29T08:09:37.568Z,7.84
2018-03-29T08:10:37.567Z,7.78
2018-03-29T08:11:37.563Z,7.78
2018-03-29T08:12:37.559Z,7.83
2018-03-29T08:13:37.555Z,7.90
2018-03-29T08:14:37.552Z,7.85
2018-03-29T08:15:37.550Z,7.85
2018-03-29T08:16:37.547Z,7.90
2018-03-29T08:17:37.544Z,7.88
2018-03-29T08:18:37.542Z,8.01
2018-03-29T08:19:37.538Z,7.91
2018-03-29T08:20:37.536Z,8.08
2018-03-29T08:21:37.533Z,8.01
2018-03-29T08:22:37.528Z,7.96
2018-03-29T08:23:37.526Z,8.08
2018-03-29T08:24:37.523Z,8.09
2018-03-29T08:25:37.520Z,8.21
2018-03-29T08:26:37.517Z,8.11
2018-03-29T08:27:37.514Z,8.14
2018-03-29T08:28:37.782Z,8.18
2018-03-29T08:29:37.511Z,8.31
2018-03-29T08:30:37.509Z,8.26
2018-03-29T08:31:37.503Z,8.27
2018-03-29T08:32:37.500Z,8.41
2018-03-29T08:33:37.495Z,8.49
2018-03-29T08:34:37.897Z,8.45
2018-03-29T08:35:37.491Z,8.44
2018-03-29T08:36:37.490Z,8.53
2018-03-29T08:37:37.671Z,8.57
2018-03-29T08:38:37.485Z,8.41
2018-03-29T08:39:37.790Z,8.36
2018-03-29T08:40:37.575Z,8.39
2018-03-29T08:41:37.475Z,8.42
2018-03-29T08:42:37.756Z,8.31
2018-03-29T08:43:37.469Z,8.36
2018-03-29T08:44:37.486Z,8.27
2018-03-29T08:45:37.464Z,8.38
2018-03-29T08:46:37.747Z,8.34
2018-03-29T08:47:37.464Z,8.42
2018-03-29T08:48:37.458Z,8.34
2018-03-29T08:49:37.521Z,8.45
2018-03-29T08:50:37.451Z,8.36
2018-03-29T08:51:37.641Z,8.32
2018-03-29T08:52:37.566Z,8.21
2018-03-29T08:53:37.442Z,8.31
2018-03-29T08:54:37.440Z,8.35
2018-03-29T08:55:37.757Z,8.26
2018-03-29T08:56:37.436Z,8.16
2018-03-29T08:57:37.433Z,8.23
2018-03-29T08:58:38.450Z,8.24
2018-03-29T08:59:37.726Z,8.28
2018-03-29T09:00:37.429Z,8.24
2018-03-29T09:01:37.422Z,8.34
2018-03-29T09:02:37.419Z,8.18
2018-03-29T09:03:37.417Z,8.17
2018-03-29T09:04:37.601Z,8.20
2018-03-29T09:05:37.411Z,8.28
2018-03-29T09:06:37.410Z,8.34
2018-03-29T09:07:37.407Z,8.34
2018-03-29T09:08:37.549Z,8.28
2018-03-29T09:09:37.436Z,8.16
2018-03-29T09:10:37.398Z,8.17
2018-03-29T09:11:37.394Z,8.18
2018-03-29T09:12:37.476Z,8.18
2018-03-29T09:13:37.389Z,8.18
2018-03-29T09:14:37.387Z,8.21
2018-03-29T09:15:37.385Z,8.20
2018-03-29T09:16:37.381Z,8.24
2018-03-29T09:17:37.379Z,8.18
2018-03-29T09:18:37.377Z,8.17
2018-03-29T09:19:37.374Z,8.20
2018-03-29T09:20:37.371Z,8.11
2018-03-29T09:21:37.368Z,8.08
2018-03-29T09:22:37.365Z,8.18
2018-03-29T09:23:37.363Z,8.13
2018-03-29T09:24:37.359Z,8.21
2018-03-29T09:25:37.357Z,8.17
2018-03-29T09:26:37.354Z,8.17
2018-03-29T09:27:37.351Z,8.14
2018-03-29T09:28:37.348Z,8.17
2018-03-29T09:29:37.350Z,8.11
2018-03-29T09:30:37.347Z,8.16
2018-03-29T09:31:37.341Z,8.24
2018-03-29T09:32:37.339Z,8.23
2018-03-29T09:33:37.336Z,8.28
2018-03-29T09:34:37.572Z,8.27
2018-03-29T09:35:37.362Z,8.45
2018-03-29T09:36:37.326Z,8.45
2018-03-29T09:37:37.323Z,8.39
2018-03-29T09:38:37.322Z,8.39
2018-03-29T09:39:37.319Z,8.41
2018-03-29T09:40:37.316Z,8.39
2018-03-29T09:41:37.972Z,8.53
2018-03-29T09:42:37.382Z,8.57
2018-03-29T09:43:37.307Z,8.60
2018-03-29T09:44:37.306Z,8.50
2018-03-29T09:45:37.303Z,8.57
2018-03-29T09:46:37.301Z,8.63
2018-03-29T09:47:37.301Z,8.64
2018-03-29T09:48:37.294Z,8.68
2018-03-29T09:49:37.362Z,8.63
2018-03-29T09:50:37.291Z,8.54
2018-03-29T09:51:37.287Z,8.61
2018-03-29T09:52:37.672Z,8.64
2018-03-29T09:53:37.282Z,8.59
2018-03-29T09:54:37.281Z,8.63
2018-03-29T09:55:37.278Z,8.59
2018-03-29T09:56:37.275Z,8.63
2018-03-29T09:57:37.273Z,8.63
2018-03-29T09:58:37.273Z,8.75
2018-03-29T09:59:37.269Z,8.78
2018-03-29T10:00:37.266Z,8.79
2018-03-29T10:01:37.263Z,8.69
2018-03-29T10:02:37.261Z,8.71
2018-03-29T10:03:37.259Z,8.49
2018-03-29T10:04:37.311Z,8.61
2018-03-29T10:05:37.253Z,8.60
2018-03-29T10:06:37.253Z,8.50
2018-03-29T10:07:37.249Z,8.61
2018-03-29T10:08:37.366Z,8.63
2018-03-29T10:09:37.309Z,8.68
2018-03-29T10:10:37.275Z,8.74
2018-03-29T10:11:37.241Z,8.71
2018-03-29T10:12:37.236Z,8.77
2018-03-29T10:13:37.233Z,8.79
2018-03-29T10:14:37.232Z,8.75
2018-03-29T10:15:37.231Z,8.75
2018-03-29T10:16:37.227Z,8.68
2018-03-29T10:17:37.224Z,8.72
2018-03-29T10:18:37.221Z,8.72
2018-03-29T10:19:37.220Z,8.69
2018-03-29T10:20:37.219Z,8.64
2018-03-29T10:21:37.214Z,8.74
2018-03-29T10:22:37.214Z,8.74
2018-03-29T10:23:37.212Z,8.87
2018-03-29T10:24:37.245Z,8.96
2018-03-29T10:25:37.205Z,8.99
2018-03-29T10:26:37.202Z,8.96
2018-03-29T10:27:37.205Z,9.00
2018-03-29T10:28:37.562Z,8.97
2018-03-29T10:29:37.196Z,9.11
2018-03-29T10:30:37.196Z,9.15
2018-03-29T10:31:37.225Z,9.21
2018-03-29T10:32:37.190Z,9.27
2018-03-29T10:33:37.188Z,9.33
2018-03-29T10:34:37.186Z,9.44
2018-03-29T10:35:37.184Z,9.52
2018-03-29T10:36:37.181Z,9.63
2018-03-29T10:37:37.184Z,9.67
2018-03-29T10:38:37.179Z,9.67
2018-03-29T10:39:37.176Z,9.64
2018-03-29T10:40:37.174Z,9.66
2018-03-29T10:41:37.173Z,9.55
2018-03-29T10:42:37.171Z,9.54
2018-03-29T10:43:37.169Z,9.55
2018-03-29T10:44:37.510Z,9.52
2018-03-29T10:45:37.175Z,9.55
2018-03-29T10:46:37.168Z,9.59
2018-03-29T10:47:37.163Z,9.64
2018-03-29T10:48:37.166Z,9.59
2018-03-29T10:49:37.159Z,9.66
2018-03-29T10:50:37.158Z,9.69
2018-03-29T10:51:37.155Z,9.73
2018-03-29T10:52:37.155Z,9.73
2018-03-29T10:53:37.153Z,9.74
2018-03-29T10:54:37.152Z,9.62
2018-03-29T10:55:37.150Z,9.74
2018-03-29T10:56:37.675Z,9.84
2018-03-29T10:57:37.404Z,9.84
2018-03-29T10:58:37.146Z,9.94
2018-03-29T10:59:37.146Z,10.05
2018-03-29T11:00:37.143Z,10.20
2018-03-29T11:01:37.143Z,10.10
2018-03-29T11:02:37.141Z,10.12
2018-03-29T11:03:37.141Z,10.18
2018-03-29T11:04:37.139Z,10.34
2018-03-29T11:05:37.137Z,10.49
2018-03-29T11:06:37.137Z,10.64
2018-03-29T11:07:37.138Z,10.64
2018-03-29T11:08:37.136Z,10.75
2018-03-29T11:09:37.136Z,10.94
2018-03-29T11:10:37.136Z,10.98
2018-03-29T11:11:37.476Z,11.15
2018-03-29T11:12:37.135Z,11.12
2018-03-29T11:13:37.134Z,11.05
2018-03-29T11:14:37.377Z,10.98
2018-03-29T11:15:37.135Z,11.20
2018-03-29T11:16:37.133Z,11.33
2018-03-29T11:17:37.135Z,11.33
2018-03-29T11:18:37.135Z,11.38
2018-03-29T11:19:37.135Z,11.44
2018-03-29T11:20:37.135Z,11.56
2018-03-29T11:21:37.134Z,11.56
2018-03-29T11:22:37.136Z,11.58
2018-03-29T11:23:37.136Z,11.55
2018-03-29T11:24:37.136Z,11.56
2018-03-29T11:25:37.136Z,11.88
2018-03-29T11:26:37.137Z,11.81
2018-03-29T11:27:37.139Z,11.91
2018-03-29T11:28:37.138Z,12.00
2018-03-29T11:29:37.139Z,12.30
2018-03-29T11:30:37.142Z,12.40
2018-03-29T11:31:37.143Z,12.51
2018-03-29T11:32:37.145Z,12.61
2018-03-29T11:33:37.148Z,12.39
2018-03-29T11:34:37.148Z,12.58
2018-03-29T11:35:37.152Z,12.58
2018-03-29T11:36:37.158Z,12.90
2018-03-29T11:37:37.158Z,12.80
2018-03-29T11:38:37.162Z,12.90
2018-03-29T11:39:37.167Z,13.08
2018-03-29T11:40:37.169Z,13.37
2018-03-29T11:41:37.267Z,13.20
2018-03-29T11:42:37.178Z,13.23
2018-03-29T11:43:37.185Z,13.39
2018-03-29T11:44:37.189Z,13.20
2018-03-29T11:45:37.192Z,13.02
2018-03-29T11:46:37.200Z,12.78
2018-03-29T11:47:37.201Z,12.53
2018-03-29T11:48:37.206Z,12.50
2018-03-29T11:49:37.209Z,12.47
2018-03-29T11:50:37.213Z,12.36
2018-03-29T11:51:37.218Z,12.37
2018-03-29T11:52:37.220Z,12.37
2018-03-29T11:53:37.223Z,12.39
2018-03-29T11:54:37.274Z,12.37
2018-03-29T11:55:37.230Z,12.35
2018-03-29T11:56:37.233Z,12.33
2018-03-29T11:57:37.241Z,12.05
2018-03-29T11:58:37.238Z,11.71
2018-03-29T11:59:37.240Z,11.44
2018-03-29T12:00:37.243Z,11.16
2018-03-29T12:01:37.244Z,10.98
2018-03-29T12:02:37.248Z,10.89
2018-03-29T12:03:37.248Z,10.89
2018-03-29T12:04:37.250Z,10.92
2018-03-29T12:05:37.252Z,11.05
2018-03-29T12:06:37.254Z,11.13
2018-03-29T12:07:37.256Z,11.18
2018-03-29T12:08:37.256Z,11.26
2018-03-29T12:09:37.347Z,11.37
2018-03-29T12:10:37.258Z,11.55
2018-03-29T12:11:37.315Z,11.68
2018-03-29T12:12:37.260Z,11.76
2018-03-29T12:13:37.260Z,11.80
2018-03-29T12:14:37.264Z,11.65
2018-03-29T12:15:37.265Z,11.52
2018-03-29T12:16:37.265Z,11.55
2018-03-29T12:17:37.264Z,11.62
2018-03-29T12:18:37.401Z,11.58
2018-03-29T12:19:37.267Z,11.68
2018-03-29T12:20:37.268Z,11.70
2018-03-29T12:21:37.269Z,11.63
2018-03-29T12:22:37.271Z,11.43
2018-03-29T12:23:37.272Z,11.38
2018-03-29T12:24:37.271Z,11.20
2018-03-29T12:25:37.272Z,11.18
2018-03-29T12:26:37.274Z,11.33
2018-03-29T12:27:37.276Z,11.40
2018-03-29T12:28:37.276Z,11.49
2018-03-29T12:29:37.276Z,11.62
2018-03-29T12:30:37.278Z,11.81
2018-03-29T12:31:37.279Z,12.10
2018-03-29T12:32:37.285Z,12.08
2018-03-29T12:33:37.606Z,12.08
2018-03-29T12:34:37.282Z,11.88
2018-03-29T12:35:37.284Z,11.80
2018-03-29T12:36:37.408Z,11.96
2018-03-29T12:37:37.287Z,12.08
2018-03-29T12:38:37.644Z,12.18
2018-03-29T12:39:37.424Z,12.02
2018-03-29T12:40:37.291Z,11.96
2018-03-29T12:41:37.292Z,12.12
2018-03-29T12:42:37.296Z,12.07
2018-03-29T12:43:37.297Z,12.21
2018-03-29T12:44:37.298Z,12.03
2018-03-29T12:45:37.300Z,11.96
2018-03-29T12:46:37.301Z,11.85
2018-03-29T12:47:37.302Z,11.55
2018-03-29T12:48:37.304Z,11.37
2018-03-29T12:49:37.304Z,11.35
2018-03-29T12:50:37.305Z,11.27
2018-03-29T12:51:37.309Z,11.20
2018-03-29T12:52:37.309Z,11.22
2018-03-29T12:53:37.307Z,11.18
2018-03-29T12:54:37.309Z,11.30
2018-03-29T12:55:37.312Z,11.34
2018-03-29T12:56:37.310Z,11.40
2018-03-29T12:57:37.310Z,11.41
2018-03-29T12:58:37.712Z,11.43
2018-03-29T12:59:37.549Z,11.52
2018-03-29T13:00:37.313Z,11.43
2018-03-29T13:01:37.361Z,11.52
2018-03-29T13:02:37.313Z,11.44
2018-03-29T13:03:37.312Z,11.51
2018-03-29T13:04:37.315Z,11.41
2018-03-29T13:05:37.317Z,11.43
2018-03-29T13:06:37.313Z,11.34
2018-03-29T13:07:37.313Z,11.34
2018-03-29T13:08:37.312Z,11.33
2018-03-29T13:09:37.316Z,11.34
2018-03-29T13:10:37.312Z,11.30
2018-03-29T13:11:37.314Z,11.31
2018-03-29T13:12:37.321Z,11.30
2018-03-29T13:13:37.314Z,11.35